LLBGOAIX

Guest
Details From LLBG - Tel Aviv Ben Gurion
To OAIX - Bagram
Flight Number -
Tags Generated
Created
Modified
Stats Distance 1,722 nm / 3,190 km
Max Altitude 0 ft / 0 m
Waypoints 5
Social Downloads 1
Likes 0
Share VATSIM

Download

Looking for another format? Having issues loading an existing format? Contact us
Advertisement - Login to hide

Notes

Generated

Route

LLBG PIVOT BLD80 R2925 OAIX

ID Type Via Altitude Latitude Longitude Leg Dist Tot Dist Heading (true) Name
O LLBG APT - 0 ft / 0 m 32.00417˚ 34.89117˚ - 0 nm - -
PIVOT FIX - 0 ft / 0 m 33.07629˚ 39.94128˚ 263 nm 263 nm 75° / 77° -
BLD80 FIX - 0 ft / 0 m 33.83811˚ 44.47730˚ 231 nm 495 nm 77° / 80° -
R2925 FIX - 0 ft / 0 m 34.93431˚ 69.25700˚ 1226 nm 1722 nm 80° / 94° -
O OAIX APT - 0 ft / 0 m 34.93431˚ 69.25700˚ 0 nm 1722 nm 0° / 180° -

Altitude Profile

Advertisement - Login to hide

Weather


0- 5 10 15 20 25 30 35+ Temperature / ° C

Clouds and Precipitation
Forecast for 2017-12-12 06:00 UTC. Updated 2 hours ago

Ground ~20,000 ft ~40,000 ft Winds

LLBG

Details ICAO LLBG (TLV)
Name Tel Aviv Ben Gurion
Region Israel
Timezone Asia/Jerusalem (UTC+2.0)
Stats Elevation 135 ft / 41 m (AMSL)
Location 32.011468° 34.885059°
Runways 3
Magnetic Variation 4.686° E

METAR

LLBG 120220Z VRB01KT CAVOK 10/04 Q1019 NOSIG RMK OBS 1500FT-TEMP 23C

Decode

TAF

TAF TAF LLBG 111718Z 1118/1218 03005KT CAVOK BECMG 1119/1121 12007KT PROB40 1203/1209 12015KT TEMPO 1210/1215 34006KT TX28/1212Z TN13/1204Z

Decode

Departure Runways

ID Width Length Bearing (true) Bearing (mag) Surface Threshold Offset Overrun Length
03 148 ft / 45 m 5,792 ft / 1,765 m 28.88° 24.19° Asphalt 0 ft / 0 m 216 ft / 66 m
08 148 ft / 45 m 12,017 ft / 3,663 m 79.72° 75.03° Asphalt 0 ft / 0 m 295 ft / 90 m
12 148 ft / 45 m 10,279 ft / 3,133 m 121.54° 116.85° Asphalt 0 ft / 0 m 328 ft / 100 m
21 148 ft / 45 m 5,792 ft / 1,765 m 208.88° 204.19° Asphalt 0 ft / 0 m 216 ft / 66 m
26 148 ft / 45 m 12,017 ft / 3,663 m 259.74° 255.05° Asphalt 1,969 ft / 600 m 205 ft / 62 m
30 148 ft / 45 m 10,279 ft / 3,133 m 301.56° 296.87° Asphalt 246 ft / 75 m 347 ft / 106 m

OAIX

Details ICAO OAIX (BPM)
Name BAGRAM
Region Afghanistan
Timezone Asia/Kabul (UTC+4.5)
Stats Elevation 4,895 ft / 1,492 m (AMSL)
Location 34.946139° 69.264972°
Runways 1
Magnetic Variation 3.269° E

METAR

OAIX 120244Z 24003KT 5000 BR FEW130 M03/M05 A2988 RMK AO2A SLP110

Decode

TAF

Not found

Destination Runways

ID Width Length Bearing (true) Bearing (mag) Surface Threshold Offset Overrun Length
03 180 ft / 55 m 9,865 ft / 3,007 m 28.90° 25.63° Concrete 0 ft / 0 m 0 ft / 0 m
21 180 ft / 55 m 9,865 ft / 3,007 m 208.91° 205.64° Concrete 0 ft / 0 m 0 ft / 0 m